createdAt,value
2019-02-02T00:01:54.114Z,25.70
2019-02-02T00:04:20.285Z,24.40
2019-02-02T00:06:46.663Z,22.43
2019-02-02T00:09:13.135Z,24.23
2019-02-02T00:11:39.438Z,23.73
2019-02-02T00:14:05.822Z,23.80
2019-02-02T00:16:32.062Z,22.67
2019-02-02T00:18:58.235Z,22.07
2019-02-02T00:21:24.368Z,22.47
2019-02-02T00:23:50.510Z,23.50
2019-02-02T00:26:16.868Z,23.13
2019-02-02T00:28:43.053Z,22.57
2019-02-02T00:31:09.203Z,22.10
2019-02-02T00:33:35.343Z,22.43
2019-02-02T00:36:01.502Z,23.40
2019-02-02T00:38:27.870Z,23.40
2019-02-02T00:40:54.038Z,22.73
2019-02-02T00:43:20.180Z,24.23
2019-02-02T00:45:46.336Z,22.87
2019-02-02T00:48:12.477Z,22.23
2019-02-02T00:50:38.633Z,24.60
2019-02-02T00:53:04.771Z,23.97
2019-02-02T00:55:30.933Z,24.73
2019-02-02T00:57:57.105Z,23.10
2019-02-02T01:00:24.755Z,21.73
2019-02-02T01:02:51.222Z,21.60
2019-02-02T01:05:18.959Z,20.50
2019-02-02T01:07:46.457Z,20.33
2019-02-02T01:10:19.396Z,20.60
2019-02-02T01:12:45.697Z,19.63
2019-02-02T01:15:14.474Z,18.90
2019-02-02T01:17:40.614Z,19.80
2019-02-02T01:20:09.367Z,19.13
2019-02-02T01:22:35.622Z,19.70
2019-02-02T01:25:05.309Z,21.83
2019-02-02T01:27:31.503Z,19.40
2019-02-02T01:29:57.626Z,20.33
2019-02-02T01:32:23.782Z,19.10
2019-02-02T01:34:49.923Z,18.10
2019-02-02T01:37:16.231Z,19.40
2019-02-02T01:39:42.505Z,19.33
2019-02-02T01:42:08.686Z,19.30
2019-02-02T01:44:34.821Z,19.23
2019-02-02T01:47:01.218Z,18.13
2019-02-02T01:49:27.588Z,19.63
2019-02-02T01:51:53.738Z,20.03
2019-02-02T01:54:19.884Z,19.43
2019-02-02T01:56:46.043Z,19.37
2019-02-02T01:59:12.190Z,21.70
2019-02-02T02:01:41.361Z,20.47
2019-02-02T02:04:06.916Z,20.30
2019-02-02T02:06:33.101Z,21.07
2019-02-02T02:08:59.248Z,20.63
2019-02-02T02:11:25.491Z,21.17
2019-02-02T02:13:51.682Z,20.20
2019-02-02T02:16:17.844Z,20.97
2019-02-02T02:18:44.004Z,20.27
2019-02-02T02:21:10.212Z,19.93
2019-02-02T02:23:36.432Z,20.30
2019-02-02T02:26:02.690Z,20.27
2019-02-02T02:28:29.020Z,21.10
2019-02-02T02:30:55.168Z,21.30
2019-02-02T02:33:21.375Z,19.37
2019-02-02T02:35:47.918Z,20.83
2019-02-02T02:38:14.101Z,20.97
2019-02-02T02:40:40.575Z,21.17
2019-02-02T02:43:06.751Z,20.93
2019-02-02T02:45:33.046Z,20.10
2019-02-02T02:47:59.255Z,20.60
2019-02-02T02:50:25.463Z,22.27
2019-02-02T02:52:51.628Z,21.07
2019-02-02T02:55:17.997Z,21.47
2019-02-02T02:57:44.859Z,21.23
2019-02-02T03:00:16.358Z,22.40
2019-02-02T03:02:42.558Z,22.67
2019-02-02T03:05:09.998Z,22.90
2019-02-02T03:07:37.480Z,21.47
2019-02-02T03:10:07.420Z,23.20
2019-02-02T03:12:33.838Z,22.63
2019-02-02T03:15:00.373Z,21.13
2019-02-02T03:17:26.906Z,22.57
2019-02-02T03:19:53.059Z,23.33
2019-02-02T03:22:19.233Z,23.37
2019-02-02T03:24:45.363Z,22.40
2019-02-02T03:27:11.538Z,23.57
2019-02-02T03:29:37.699Z,23.77
2019-02-02T03:32:03.932Z,23.63
2019-02-02T03:34:30.123Z,23.60
2019-02-02T03:36:56.279Z,22.90
2019-02-02T03:39:22.764Z,24.20
2019-02-02T03:41:49.117Z,23.77
2019-02-02T03:44:15.338Z,24.07
2019-02-02T03:46:41.750Z,24.43
2019-02-02T03:49:07.895Z,24.27
2019-02-02T03:51:34.092Z,24.67
2019-02-02T03:54:08.346Z,25.73
2019-02-02T03:56:28.306Z,27.90
2019-02-02T03:59:05.678Z,27.33
2019-02-02T04:01:23.835Z,27.70
2019-02-02T04:03:50.335Z,27.60
2019-02-02T04:06:16.571Z,29.87
2019-02-02T04:08:42.787Z,27.67
2019-02-02T04:11:09.194Z,27.60
2019-02-02T04:13:35.465Z,28.97
2019-02-02T04:16:01.834Z,27.63
2019-02-02T04:18:27.995Z,27.07
2019-02-02T04:20:54.165Z,29.30
2019-02-02T04:23:20.410Z,29.00
2019-02-02T04:25:46.635Z,28.97
2019-02-02T04:28:13.123Z,29.63
2019-02-02T04:30:39.278Z,30.37
2019-02-02T04:33:05.446Z,30.53
2019-02-02T04:35:31.698Z,31.80
2019-02-02T04:37:57.861Z,31.77
2019-02-02T04:40:23.993Z,30.80
2019-02-02T04:42:50.477Z,31.33
2019-02-02T04:45:17.155Z,29.90
2019-02-02T04:47:43.446Z,31.57
2019-02-02T04:50:11.793Z,29.87
2019-02-02T04:52:37.916Z,30.60
2019-02-02T04:55:05.791Z,29.50
2019-02-02T04:57:31.935Z,31.07
2019-02-02T04:59:58.126Z,30.07
2019-02-02T05:02:24.272Z,32.33
2019-02-02T05:04:50.538Z,31.77
2019-02-02T05:07:16.687Z,32.83
2019-02-02T05:09:42.840Z,31.53
2019-02-02T05:12:09.247Z,31.47
2019-02-02T05:14:35.493Z,32.57
2019-02-02T05:17:01.728Z,31.27
2019-02-02T05:19:27.907Z,31.53
2019-02-02T05:21:54.287Z,33.63
2019-02-02T05:24:20.427Z,30.83
2019-02-02T05:26:46.829Z,33.63
2019-02-02T05:29:12.967Z,32.83
2019-02-02T05:31:39.143Z,32.90
2019-02-02T05:34:05.588Z,34.53
2019-02-02T05:36:31.743Z,35.93
2019-02-02T05:38:57.886Z,36.07
2019-02-02T05:41:24.031Z,35.17
2019-02-02T05:43:50.185Z,35.87
2019-02-02T05:46:16.331Z,34.70
2019-02-02T05:48:42.489Z,35.30
2019-02-02T05:51:08.736Z,35.37
2019-02-02T05:53:34.890Z,36.10
2019-02-02T05:56:01.278Z,35.17
2019-02-02T05:58:27.437Z,36.10
2019-02-02T06:00:53.982Z,37.73
2019-02-02T06:03:20.126Z,36.27
2019-02-02T06:05:46.310Z,36.70
2019-02-02T06:08:12.439Z,38.07
2019-02-02T06:10:38.695Z,37.33
2019-02-02T06:13:04.865Z,37.33
2019-02-02T06:15:31.026Z,37.13
2019-02-02T06:17:57.188Z,35.87
2019-02-02T06:20:23.328Z,36.93
2019-02-02T06:22:49.556Z,36.07
2019-02-02T06:25:15.824Z,36.90
2019-02-02T06:27:42.484Z,35.10
2019-02-02T06:30:12.123Z,34.87
2019-02-02T06:32:38.510Z,36.60
2019-02-02T06:35:07.752Z,38.67
2019-02-02T06:37:33.916Z,39.47
2019-02-02T06:40:00.096Z,40.40
2019-02-02T06:42:26.322Z,37.83
2019-02-02T06:44:52.475Z,38.40
2019-02-02T06:47:18.624Z,39.93
2019-02-02T06:49:44.758Z,38.63
2019-02-02T06:52:10.910Z,37.40
2019-02-02T06:54:37.312Z,38.27
2019-02-02T06:57:03.799Z,40.53
2019-02-02T06:59:29.940Z,41.53
2019-02-02T07:01:56.182Z,40.30
2019-02-02T07:04:22.358Z,40.80
2019-02-02T07:06:48.502Z,40.47
2019-02-02T07:09:14.829Z,39.97
2019-02-02T07:11:41.241Z,36.73
2019-02-02T07:14:07.399Z,34.87
2019-02-02T07:16:33.652Z,37.13
2019-02-02T07:18:59.863Z,36.13
2019-02-02T07:21:26.009Z,34.37
2019-02-02T07:23:52.183Z,37.53
2019-02-02T07:26:18.348Z,51.13
2019-02-02T07:28:44.496Z,40.80
2019-02-02T07:31:10.655Z,40.53
2019-02-02T07:33:36.820Z,38.63
2019-02-02T07:36:03.067Z,38.50
2019-02-02T07:38:29.217Z,38.37
2019-02-02T07:40:55.448Z,38.00
2019-02-02T07:43:21.599Z,37.50
2019-02-02T07:45:50.771Z,37.57
2019-02-02T07:48:16.912Z,36.97
2019-02-02T07:50:43.058Z,37.50
2019-02-02T07:53:09.380Z,39.47
2019-02-02T07:55:35.531Z,38.53
2019-02-02T07:58:01.803Z,39.30
2019-02-02T08:00:40.498Z,39.60
2019-02-02T08:02:59.410Z,38.77
2019-02-02T08:05:25.563Z,38.97
2019-02-02T08:07:51.710Z,40.70
2019-02-02T08:10:18.086Z,38.37
2019-02-02T08:12:44.219Z,38.13
2019-02-02T08:15:17.491Z,38.67
2019-02-02T08:17:43.686Z,40.90
2019-02-02T08:20:12.454Z,41.07
2019-02-02T08:22:38.726Z,42.03
2019-02-02T08:25:07.763Z,42.33
2019-02-02T08:27:33.931Z,43.93
2019-02-02T08:30:00.408Z,42.30
2019-02-02T08:32:26.857Z,43.63
2019-02-02T08:34:53.355Z,43.30
2019-02-02T08:37:19.500Z,43.30
2019-02-02T08:39:45.684Z,42.47
2019-02-02T08:42:11.832Z,43.27
2019-02-02T08:44:37.987Z,44.80
2019-02-02T08:47:04.153Z,44.50
2019-02-02T08:49:30.527Z,43.03
2019-02-02T08:51:56.672Z,46.13
2019-02-02T08:54:22.858Z,44.70
2019-02-02T08:56:49.235Z,45.20
2019-02-02T08:59:15.447Z,43.43
2019-02-02T09:01:41.608Z,43.47
2019-02-02T09:04:07.864Z,42.97
2019-02-02T09:06:39.187Z,45.23
2019-02-02T09:09:05.599Z,42.83
2019-02-02T09:11:31.867Z,42.53
2019-02-02T09:13:58.027Z,45.80
2019-02-02T09:16:24.184Z,42.40
2019-02-02T09:18:51.320Z,42.33
2019-02-02T09:21:17.948Z,43.03
2019-02-02T09:23:44.079Z,51.97
2019-02-02T09:26:11.247Z,43.10
2019-02-02T09:28:37.618Z,48.10
2019-02-02T09:31:15.242Z,43.97
2019-02-02T09:33:31.929Z,43.53
2019-02-02T09:35:58.082Z,41.33
2019-02-02T09:38:24.235Z,43.23
2019-02-02T09:40:50.453Z,43.47
2019-02-02T09:43:16.661Z,43.50
2019-02-02T09:45:42.805Z,41.03
2019-02-02T09:48:08.954Z,43.47
2019-02-02T09:50:35.099Z,43.07
2019-02-02T09:53:01.251Z,42.20
2019-02-02T09:55:27.390Z,48.20
2019-02-02T09:57:59.070Z,43.50
2019-02-02T10:00:28.353Z,42.90
2019-02-02T10:02:54.999Z,40.93
2019-02-02T10:05:21.151Z,41.03
2019-02-02T10:07:48.394Z,40.30
2019-02-02T10:10:17.475Z,43.10
2019-02-02T10:12:43.692Z,52.80
2019-02-02T10:15:10.322Z,46.30
2019-02-02T10:17:36.482Z,46.10
2019-02-02T10:20:05.718Z,45.70
2019-02-02T10:22:32.110Z,48.73
2019-02-02T10:24:58.247Z,47.07
2019-02-02T10:27:24.697Z,44.77
2019-02-02T10:29:50.908Z,46.03
2019-02-02T10:32:17.056Z,47.17
2019-02-02T10:34:43.238Z,45.30
2019-02-02T10:37:09.445Z,45.53
2019-02-02T10:39:35.575Z,43.47
2019-02-02T10:42:01.746Z,55.00
2019-02-02T10:44:28.126Z,48.20
2019-02-02T10:46:54.278Z,46.57
2019-02-02T10:49:20.785Z,45.50
2019-02-02T10:51:47.106Z,45.60
2019-02-02T10:54:13.259Z,43.90
2019-02-02T10:56:41.285Z,41.20
2019-02-02T10:59:08.440Z,38.63
2019-02-02T11:01:35.758Z,39.57
2019-02-02T11:04:02.344Z,40.90
2019-02-02T11:06:28.599Z,40.43
2019-02-02T11:08:54.835Z,41.90
2019-02-02T11:11:21.128Z,40.57
2019-02-02T11:13:47.381Z,43.40
2019-02-02T11:16:13.519Z,42.87
2019-02-02T11:18:39.826Z,42.03
2019-02-02T11:21:06.010Z,45.33
2019-02-02T11:23:32.191Z,44.37
2019-02-02T11:25:58.406Z,43.43
2019-02-02T11:28:24.684Z,45.27
2019-02-02T11:30:52.320Z,44.77
2019-02-02T11:33:18.546Z,42.53
2019-02-02T11:35:44.699Z,37.70
2019-02-02T11:38:10.863Z,42.53
2019-02-02T11:40:37.100Z,43.77
2019-02-02T11:43:03.754Z,44.30
2019-02-02T11:45:29.995Z,45.33
2019-02-02T11:47:56.280Z,44.00
2019-02-02T11:50:22.767Z,45.10
2019-02-02T11:52:49.019Z,46.93
2019-02-02T11:55:23.560Z,46.40
2019-02-02T11:57:50.848Z,45.70
2019-02-02T12:00:22.526Z,47.37
2019-02-02T12:02:49.744Z,47.57
2019-02-02T12:05:16.247Z,48.47
2019-02-02T12:07:42.397Z,49.80
2019-02-02T12:10:11.934Z,49.73
2019-02-02T12:12:38.114Z,54.03
2019-02-02T12:15:08.260Z,51.33
2019-02-02T12:17:34.510Z,50.63
2019-02-02T12:20:00.667Z,49.17
2019-02-02T12:22:27.065Z,51.77
2019-02-02T12:24:53.284Z,52.23
2019-02-02T12:27:19.491Z,53.63
2019-02-02T12:29:45.658Z,51.87
2019-02-02T12:32:12.031Z,52.17
2019-02-02T12:34:38.179Z,55.97
2019-02-02T12:37:04.378Z,56.80
2019-02-02T12:39:30.766Z,53.77
2019-02-02T12:41:56.906Z,53.30
2019-02-02T12:44:23.053Z,56.00
2019-02-02T12:46:49.204Z,55.00
2019-02-02T12:49:15.452Z,54.97
2019-02-02T12:51:41.629Z,53.73
2019-02-02T12:54:07.770Z,59.47
2019-02-02T12:56:33.904Z,54.57
2019-02-02T12:59:00.068Z,58.03
2019-02-02T13:01:26.307Z,53.10
2019-02-02T13:04:01.272Z,55.27
2019-02-02T13:06:20.494Z,58.53
2019-02-02T13:08:46.656Z,53.63
2019-02-02T13:11:12.929Z,57.43
2019-02-02T13:13:39.127Z,55.00
2019-02-02T13:16:05.268Z,56.63
2019-02-02T13:18:31.461Z,57.93
2019-02-02T13:20:57.603Z,55.90
2019-02-02T13:23:23.985Z,56.73
2019-02-02T13:25:50.146Z,57.30
2019-02-02T13:28:16.286Z,57.77
2019-02-02T13:30:42.431Z,55.73
2019-02-02T13:33:08.809Z,56.30
2019-02-02T13:35:35.967Z,54.43
2019-02-02T13:38:02.301Z,54.50
2019-02-02T13:40:28.547Z,55.93
2019-02-02T13:42:55.698Z,54.60
2019-02-02T13:45:22.583Z,51.73
2019-02-02T13:47:48.848Z,55.37
2019-02-02T13:50:16.152Z,52.40
2019-02-02T13:52:43.841Z,51.17
2019-02-02T13:57:39.558Z,54.17
2019-02-02T14:00:15.355Z,54.97
2019-02-02T14:02:41.814Z,46.00
2019-02-02T14:05:13.043Z,53.80
2019-02-02T14:07:39.406Z,50.00
2019-02-02T14:10:09.155Z,54.53
2019-02-02T14:12:35.329Z,46.50
2019-02-02T14:15:01.491Z,50.70
2019-02-02T14:17:27.886Z,53.97
2019-02-02T14:19:54.027Z,54.17
2019-02-02T14:22:20.236Z,54.70
2019-02-02T14:24:46.425Z,54.57
2019-02-02T14:27:12.619Z,49.37
2019-02-02T14:29:38.986Z,54.80
2019-02-02T14:32:05.138Z,54.23
2019-02-02T14:34:39.920Z,54.13
2019-02-02T14:36:59.335Z,52.80
2019-02-02T14:39:25.479Z,53.70
2019-02-02T14:41:51.649Z,57.20
2019-02-02T14:44:17.806Z,55.30
2019-02-02T14:46:43.970Z,55.10
2019-02-02T14:49:10.137Z,58.73
2019-02-02T14:51:36.301Z,54.17
2019-02-02T14:54:02.775Z,58.03
2019-02-02T14:56:28.929Z,58.70
2019-02-02T14:58:55.083Z,60.47
2019-02-02T15:01:21.291Z,60.00
2019-02-02T15:03:47.591Z,55.23
2019-02-02T15:06:13.794Z,59.57
2019-02-02T15:08:40.190Z,56.50
2019-02-02T15:11:06.333Z,56.87
2019-02-02T15:13:32.492Z,61.10
2019-02-02T15:15:58.648Z,60.87
2019-02-02T15:18:24.790Z,64.30
2019-02-02T15:20:51.156Z,62.80
2019-02-02T15:23:17.315Z,59.17
2019-02-02T15:25:43.447Z,58.43
2019-02-02T15:28:09.606Z,64.83
2019-02-02T15:30:35.738Z,62.27
2019-02-02T15:33:02.627Z,60.67
2019-02-02T15:35:29.005Z,62.97
2019-02-02T15:37:55.154Z,73.50
2019-02-02T15:40:21.403Z,57.17
2019-02-02T15:42:48.447Z,60.77
2019-02-02T15:45:17.007Z,76.40
2019-02-02T15:47:43.162Z,65.87
2019-02-02T15:50:12.608Z,64.90
2019-02-02T15:52:38.875Z,64.63
2019-02-02T15:55:13.422Z,78.53
2019-02-02T15:57:39.579Z,67.30
2019-02-02T16:00:09.645Z,65.53
2019-02-02T16:02:36.116Z,64.73
2019-02-02T16:05:06.088Z,68.13
2019-02-02T16:07:33.227Z,61.87
2019-02-02T16:09:59.407Z,62.30
2019-02-02T16:12:25.805Z,61.97
2019-02-02T16:14:52.098Z,61.33
2019-02-02T16:17:19.800Z,64.63
2019-02-02T16:19:45.983Z,60.03
2019-02-02T16:22:12.123Z,59.87
2019-02-02T16:24:38.273Z,61.50
2019-02-02T16:27:04.464Z,60.07
2019-02-02T16:29:31.544Z,59.23
2019-02-02T16:31:57.718Z,60.07
2019-02-02T16:34:23.879Z,57.43
2019-02-02T16:36:50.249Z,67.07
2019-02-02T16:39:16.395Z,78.37
2019-02-02T16:41:42.565Z,64.43
2019-02-02T16:44:09.698Z,61.30
2019-02-02T16:46:35.865Z,60.07
2019-02-02T16:49:02.263Z,55.73
2019-02-02T16:51:28.431Z,60.37
2019-02-02T16:53:54.632Z,60.83
2019-02-02T16:56:21.166Z,60.67
2019-02-02T16:58:47.312Z,63.03
2019-02-02T17:01:13.510Z,67.83
2019-02-02T17:03:39.666Z,58.57
2019-02-02T17:06:05.915Z,57.87
2019-02-02T17:08:32.076Z,60.90
2019-02-02T17:10:58.235Z,62.37
2019-02-02T17:13:24.655Z,59.23
2019-02-02T17:15:50.863Z,59.37
2019-02-02T17:18:17.002Z,60.40
2019-02-02T17:20:43.408Z,61.13
2019-02-02T17:23:09.546Z,66.50
2019-02-02T17:25:36.003Z,63.67
2019-02-02T17:28:02.759Z,63.07
2019-02-02T17:30:29.008Z,63.03
2019-02-02T17:32:58.660Z,63.67
2019-02-02T17:35:25.054Z,65.20
2019-02-02T17:37:51.436Z,66.77
2019-02-02T17:40:21.718Z,59.70
2019-02-02T17:42:48.193Z,63.23
2019-02-02T17:45:16.485Z,64.03
2019-02-02T17:47:42.854Z,69.57
2019-02-02T17:50:14.122Z,68.73
2019-02-02T17:52:40.498Z,63.47
2019-02-02T17:55:08.384Z,62.80
2019-02-02T17:57:34.871Z,62.53
2019-02-02T18:00:01.129Z,60.60
2019-02-02T18:02:27.371Z,62.97
2019-02-02T18:04:53.532Z,62.17
2019-02-02T18:07:19.670Z,63.27
2019-02-02T18:09:46.856Z,60.67
2019-02-02T18:12:13.160Z,67.53
2019-02-02T18:14:39.555Z,62.27
2019-02-02T18:17:05.760Z,64.10
2019-02-02T18:19:32.348Z,65.87
2019-02-02T18:21:58.494Z,62.07
2019-02-02T18:24:24.647Z,60.63
2019-02-02T18:26:50.788Z,61.27
2019-02-02T18:29:17.019Z,60.37
2019-02-02T18:31:43.173Z,65.20
2019-02-02T18:34:09.329Z,61.67
2019-02-02T18:36:35.499Z,59.83
2019-02-02T18:39:01.760Z,59.40
2019-02-02T18:41:29.798Z,54.70
2019-02-02T18:43:55.967Z,57.87
2019-02-02T18:46:22.189Z,57.93
2019-02-02T18:48:48.480Z,57.67
2019-02-02T18:51:14.619Z,54.70
2019-02-02T18:53:41.137Z,53.67
2019-02-02T18:56:07.514Z,55.03
2019-02-02T18:58:34.664Z,55.40
2019-02-02T19:01:00.839Z,57.13
2019-02-02T19:03:26.995Z,53.73
2019-02-02T19:05:53.157Z,56.13
2019-02-02T19:08:19.294Z,57.10
2019-02-02T19:10:45.439Z,56.07
2019-02-02T19:13:11.827Z,54.07
2019-02-02T19:15:37.989Z,53.50
2019-02-02T19:18:05.560Z,54.20
2019-02-02T19:20:31.783Z,53.73
2019-02-02T19:22:57.948Z,53.30
2019-02-02T19:25:24.279Z,50.97
2019-02-02T19:27:50.426Z,50.27
2019-02-02T19:30:30.528Z,53.00
2019-02-02T19:32:56.672Z,51.17
2019-02-02T19:35:23.488Z,48.90
2019-02-02T19:37:49.658Z,50.90
2019-02-02T19:40:16.301Z,49.27
2019-02-02T19:42:42.651Z,54.67
2019-02-02T19:45:12.577Z,43.57
2019-02-02T19:47:39.080Z,41.13
2019-02-02T19:50:09.072Z,50.87
2019-02-02T19:52:35.465Z,48.67
2019-02-02T19:55:13.404Z,46.50
2019-02-02T19:57:30.114Z,50.53
2019-02-02T19:59:56.503Z,49.60
2019-02-02T20:02:22.646Z,50.37
2019-02-02T20:04:49.027Z,45.30
2019-02-02T20:07:15.170Z,47.47
2019-02-02T20:09:41.323Z,48.17
2019-02-02T20:12:09.130Z,46.23
2019-02-02T20:14:35.573Z,49.47
2019-02-02T20:17:01.743Z,46.10
2019-02-02T20:19:27.891Z,45.77
2019-02-02T20:21:54.315Z,47.03
2019-02-02T20:24:20.461Z,46.83
2019-02-02T20:26:46.623Z,48.10
2019-02-02T20:29:12.767Z,46.43
2019-02-02T20:31:38.923Z,47.23
2019-02-02T20:34:05.068Z,50.40
2019-02-02T20:36:31.225Z,48.87
2019-02-02T20:38:57.471Z,47.77
2019-02-02T20:41:23.858Z,48.87
2019-02-02T20:43:50.135Z,52.40
2019-02-02T20:46:16.345Z,53.93
2019-02-02T20:48:42.510Z,54.90
2019-02-02T20:51:08.663Z,54.90
2019-02-02T20:53:35.817Z,55.07
2019-02-02T20:56:01.967Z,53.87
2019-02-02T20:58:28.149Z,56.17
2019-02-02T21:00:54.610Z,55.67
2019-02-02T21:03:20.771Z,56.27
2019-02-02T21:05:52.371Z,53.87
2019-02-02T21:08:15.170Z,57.13
2019-02-02T21:10:44.405Z,59.03
2019-02-02T21:13:09.366Z,60.77
2019-02-02T21:15:35.510Z,61.70
2019-02-02T21:18:03.084Z,63.70
2019-02-02T21:20:29.610Z,65.50
2019-02-02T21:22:55.883Z,63.77
2019-02-02T21:25:22.223Z,67.00
2019-02-02T21:27:48.476Z,64.77
2019-02-02T21:30:21.200Z,63.00
2019-02-02T21:32:47.357Z,61.53
2019-02-02T21:35:13.611Z,61.67
2019-02-02T21:37:39.762Z,60.57
2019-02-02T21:40:11.947Z,61.37
2019-02-02T21:42:38.100Z,61.73
2019-02-02T21:45:07.950Z,61.97
2019-02-02T21:47:34.210Z,61.10
2019-02-02T21:50:00.347Z,58.53
2019-02-02T21:52:26.712Z,61.63
2019-02-02T21:54:52.855Z,64.43
2019-02-02T21:57:19.010Z,66.77
2019-02-02T21:59:45.137Z,68.00
2019-02-02T22:02:11.559Z,71.17
2019-02-02T22:04:37.690Z,70.63
2019-02-02T22:07:03.948Z,69.57
2019-02-02T22:09:30.630Z,68.10
2019-02-02T22:11:56.787Z,67.50
2019-02-02T22:14:22.965Z,61.20
2019-02-02T22:16:49.103Z,65.53
2019-02-02T22:19:15.258Z,62.07
2019-02-02T22:21:41.678Z,59.43
2019-02-02T22:24:07.834Z,58.27
2019-02-02T22:26:34.291Z,63.63
2019-02-02T22:29:00.572Z,63.60
2019-02-02T22:31:26.795Z,64.17
2019-02-02T22:33:53.199Z,58.33
2019-02-02T22:36:26.939Z,61.80
2019-02-02T22:38:47.398Z,59.47
2019-02-02T22:41:13.536Z,62.50
2019-02-02T22:43:39.791Z,59.47
2019-02-02T22:46:05.922Z,63.23
2019-02-02T22:48:32.086Z,61.57
2019-02-02T22:50:58.226Z,58.53
2019-02-02T22:53:24.619Z,62.03
2019-02-02T22:55:50.772Z,63.17
2019-02-02T22:58:16.924Z,63.73
2019-02-02T23:00:57.338Z,62.40
2019-02-02T23:03:27.199Z,58.33
2019-02-02T23:05:59.894Z,59.03
2019-02-02T23:08:33.877Z,59.07
2019-02-02T23:11:19.012Z,58.73
2019-02-02T23:14:04.045Z,56.93
2019-02-02T23:16:30.595Z,57.30
2019-02-02T23:18:57.357Z,57.90
2019-02-02T23:21:23.583Z,61.37
2019-02-02T23:23:50.035Z,62.27
2019-02-02T23:26:16.176Z,59.40
2019-02-02T23:28:43.326Z,60.60
2019-02-02T23:31:09.465Z,59.90
2019-02-02T23:33:36.031Z,62.00
2019-02-02T23:36:02.387Z,61.67
2019-02-02T23:38:28.530Z,63.23
2019-02-02T23:40:54.915Z,60.77
2019-02-02T23:43:21.067Z,64.07
2019-02-02T23:45:47.230Z,60.40
2019-02-02T23:48:13.371Z,61.13
2019-02-02T23:50:39.519Z,59.57
2019-02-02T23:53:05.669Z,61.43
2019-02-02T23:55:31.822Z,59.47
2019-02-02T23:57:57.965Z,65.47
